Time,TemperatureF,DewpointF,PressureIn,WindDirection,WindDirectionDegrees,WindSpeedMPH,WindSpeedGustMPH,Humidity,HourlyPrecipIn,Conditions,Clouds,dailyrainin,SoftwareType,DateUTC
2013-01-13 00:00:00,10.2,5.0,30.08,NNE,13,9.0,11.0,79,0.00,,,0.00,VWS V14.01,2013-01-13 06:00:00,
2013-01-13 00:03:00,10.1,4.6,30.08,NW,324,4.0,9.0,78,0.00,,,0.00,VWS V14.01,2013-01-13 06:03:00,
2013-01-13 00:08:00,10.0,4.5,30.08,NNW,340,3.0,9.0,78,0.00,,,0.00,VWS V14.01,2013-01-13 06:08:00,
2013-01-13 00:13:00,9.9,4.4,30.08,NW,317,4.0,10.0,78,0.00,,,0.00,VWS V14.01,2013-01-13 06:13:00,
2013-01-13 00:18:00,9.8,4.3,30.08,NW,311,3.0,10.0,78,0.00,,,0.00,VWS V14.01,2013-01-13 06:18:00,
2013-01-13 00:23:00,9.8,4.6,30.09,North,1,4.0,14.0,79,0.00,,,0.00,VWS V14.01,2013-01-13 06:23:00,
2013-01-13 00:28:00,9.6,4.4,30.08,NNW,347,7.0,14.0,79,0.00,,,0.00,VWS V14.01,2013-01-13 06:28:00,
2013-01-13 00:30:00,9.6,4.4,30.09,NNW,344,5.0,14.0,79,0.00,,,0.00,VWS V14.01,2013-01-13 06:30:00,
2013-01-13 00:33:00,9.5,4.3,30.08,NW,325,3.0,9.0,79,0.00,,,0.00,VWS V14.01,2013-01-13 06:33:00,
2013-01-13 00:38:00,9.4,4.2,30.08,NNW,327,7.0,11.0,79,0.00,,,0.00,VWS V14.01,2013-01-13 06:38:00,
2013-01-13 00:43:00,9.1,3.9,30.07,NW,319,7.0,12.0,79,0.00,,,0.00,VWS V14.01,2013-01-13 06:43:00,
2013-01-13 00:48:00,9.0,4.1,30.08,North,352,5.0,12.0,80,0.00,,,0.00,VWS V14.01,2013-01-13 06:48:00,
2013-01-13 00:53:00,8.8,3.6,30.08,NW,316,3.0,12.0,79,0.00,,,0.00,VWS V14.01,2013-01-13 06:53:00,
2013-01-13 00:58:00,8.7,3.5,30.06,NNW,340,8.0,14.0,79,0.00,,,0.00,VWS V14.01,2013-01-13 06:58:00,
2013-01-13 01:00:00,8.6,3.4,30.06,NNW,343,8.0,14.0,79,0.00,,,0.00,VWS V14.01,2013-01-13 07:00:00,
2013-01-13 01:03:00,8.5,3.3,30.07,NNW,328,6.0,12.0,79,0.00,,,0.00,VWS V14.01,2013-01-13 07:03:00,
2013-01-13 01:08:00,8.1,2.4,30.07,NW,324,2.0,13.0,77,0.00,,,0.00,VWS V14.01,2013-01-13 07:08:00,
2013-01-13 01:13:00,7.8,2.1,30.07,NW,316,2.0,13.0,77,0.00,,,0.00,VWS V14.01,2013-01-13 07:13:00,
2013-01-13 01:18:00,7.5,2.1,30.07,NNW,333,5.0,13.0,78,0.00,,,0.00,VWS V14.01,2013-01-13 07:18:00,
2013-01-13 01:23:00,7.3,1.9,30.08,North,350,6.0,13.0,78,0.00,,,0.00,VWS V14.01,2013-01-13 07:23:00,
2013-01-13 01:28:00,7.1,2.0,30.08,North,360,7.0,13.0,79,0.00,,,0.00,VWS V14.01,2013-01-13 07:28:00,
2013-01-13 01:30:00,7.0,1.9,30.08,NNE,13,4.0,13.0,79,0.00,,,0.00,VWS V14.01,2013-01-13 07:30:00,
2013-01-13 01:33:00,6.9,1.8,30.08,NNW,342,3.0,7.0,79,0.00,,,0.00,VWS V14.01,2013-01-13 07:33:00,
2013-01-13 01:38:00,6.8,1.7,30.09,NNW,333,3.0,8.0,79,0.00,,,0.00,VWS V14.01,2013-01-13 07:38:00,
2013-01-13 01:43:00,6.7,1.6,30.08,NW,319,4.0,8.0,79,0.00,,,0.00,VWS V14.01,2013-01-13 07:43:00,
2013-01-13 01:48:00,6.6,1.5,30.08,North,6,4.0,8.0,79,0.00,,,0.00,VWS V14.01,2013-01-13 07:48:00,
2013-01-13 01:53:00,6.6,1.5,30.09,NNE,15,1.0,9.0,79,0.00,,,0.00,VWS V14.01,2013-01-13 07:53:00,
2013-01-13 01:58:00,6.5,1.7,30.09,North,6,2.0,9.0,80,0.00,,,0.00,VWS V14.01,2013-01-13 07:58:00,
2013-01-13 02:00:00,6.5,1.7,30.09,NW,319,2.0,9.0,80,0.00,,,0.00,VWS V14.01,2013-01-13 08:00:00,
2013-01-13 02:03:00,6.5,1.7,30.09,NW,316,4.0,5.0,80,0.00,,,0.00,VWS V14.01,2013-01-13 08:03:00,
2013-01-13 02:08:00,6.6,1.8,30.10,NW,323,3.0,10.0,80,0.00,,,0.00,VWS V14.01,2013-01-13 08:08:00,
2013-01-13 02:13:00,6.7,2.1,30.11,NW,311,5.0,10.0,81,0.00,,,0.00,VWS V14.01,2013-01-13 08:13:00,
2013-01-13 02:18:00,6.7,1.9,30.11,NNE,15,5.0,10.0,80,0.00,,,0.00,VWS V14.01,2013-01-13 08:18:00,
2013-01-13 02:23:00,6.6,1.8,30.11,NNW,332,3.0,10.0,80,0.00,,,0.00,VWS V14.01,2013-01-13 08:23:00,
2013-01-13 02:28:00,6.4,1.3,30.11,North,11,5.0,10.0,79,0.00,,,0.00,VWS V14.01,2013-01-13 08:28:00,
2013-01-13 02:30:00,6.3,1.2,30.11,North,1,3.0,10.0,79,0.00,,,0.00,VWS V14.01,2013-01-13 08:30:00,
2013-01-13 02:33:00,6.2,1.1,30.11,NW,326,3.0,8.0,79,0.00,,,0.00,VWS V14.01,2013-01-13 08:33:00,
2013-01-13 02:38:00,6.1,1.3,30.11,NNE,17,8.0,8.0,80,0.00,,,0.00,VWS V14.01,2013-01-13 08:38:00,
2013-01-13 02:43:00,5.9,0.8,30.11,NNW,333,3.0,8.0,79,0.00,,,0.00,VWS V14.01,2013-01-13 08:43:00,
2013-01-13 02:48:00,5.7,0.3,30.11,NNE,25,6.0,8.0,78,0.00,,,0.00,VWS V14.01,2013-01-13 08:48:00,
2013-01-13 02:53:00,5.5,0.1,30.10,North,6,6.0,11.0,78,0.00,,,0.00,VWS V14.01,2013-01-13 08:53:00,
2013-01-13 02:58:00,5.4,0.3,30.10,North,352,4.0,11.0,79,0.00,,,0.00,VWS V14.01,2013-01-13 08:58:00,
2013-01-13 03:00:00,5.4,0.3,30.10,NW,316,4.0,11.0,79,0.00,,,0.00,VWS V14.01,2013-01-13 09:00:00,
2013-01-13 03:03:00,5.3,0.2,30.10,NNE,19,1.0,6.0,79,0.00,,,0.00,VWS V14.01,2013-01-13 09:03:00,
2013-01-13 03:08:00,5.2,0.1,30.11,NNW,328,1.0,9.0,79,0.00,,,0.00,VWS V14.01,2013-01-13 09:08:00,
2013-01-13 03:13:00,5.1,0.3,30.09,NW,325,3.0,9.0,80,0.00,,,0.00,VWS V14.01,2013-01-13 09:13:00,
2013-01-13 03:18:00,5.0,0.2,30.10,NNE,29,4.0,9.0,80,0.00,,,0.00,VWS V14.01,2013-01-13 09:18:00,
2013-01-13 03:23:00,5.0,0.2,30.09,NNE,22,2.0,9.0,80,0.00,,,0.00,VWS V14.01,2013-01-13 09:23:00,
2013-01-13 03:28:00,4.9,0.1,30.09,NW,325,3.0,9.0,80,0.00,,,0.00,VWS V14.01,2013-01-13 09:28:00,
2013-01-13 03:30:00,4.8,0.0,30.09,NW,318,1.0,10.0,80,0.00,,,0.00,VWS V14.01,2013-01-13 09:30:00,
2013-01-13 03:33:00,4.8,0.0,30.09,NNE,13,2.0,8.0,80,0.00,,,0.00,VWS V14.01,2013-01-13 09:33:00,
2013-01-13 03:38:00,4.7,-0.1,30.09,North,11,4.0,8.0,80,0.00,,,0.00,VWS V14.01,2013-01-13 09:38:00,
2013-01-13 03:43:00,4.8,0.3,30.09,NW,326,2.0,9.0,81,0.00,,,0.00,VWS V14.01,2013-01-13 09:43:00,
2013-01-13 03:48:00,4.9,0.4,30.09,NW,308,3.0,9.0,81,0.00,,,0.00,VWS V14.01,2013-01-13 09:48:00,
2013-01-13 03:53:00,4.9,0.4,30.09,NW,307,1.0,9.0,81,0.00,,,0.00,VWS V14.01,2013-01-13 09:53:00,
2013-01-13 03:58:00,5.0,0.5,30.10,NNW,327,4.0,9.0,81,0.00,,,0.00,VWS V14.01,2013-01-13 09:58:00,
2013-01-13 04:00:00,5.1,0.6,30.10,NW,306,4.0,9.0,81,0.00,,,0.00,VWS V14.01,2013-01-13 10:00:00,
2013-01-13 04:03:00,5.1,0.6,30.09,WNW,298,3.0,8.0,81,0.00,,,0.00,VWS V14.01,2013-01-13 10:03:00,
2013-01-13 04:08:00,5.2,0.4,30.09,NW,322,6.0,8.0,80,0.00,,,0.00,VWS V14.01,2013-01-13 10:08:00,
2013-01-13 04:13:00,5.0,-0.3,30.09,NW,319,3.0,8.0,78,0.00,,,0.00,VWS V14.01,2013-01-13 10:13:00,
2013-01-13 04:18:00,4.8,-0.3,30.10,NNE,25,4.0,9.0,79,0.00,,,0.00,VWS V14.01,2013-01-13 10:18:00,
2013-01-13 04:23:00,4.6,-0.5,30.10,West,262,3.0,9.0,79,0.00,,,0.00,VWS V14.01,2013-01-13 10:23:00,
2013-01-13 04:28:00,4.4,-0.4,30.10,NW,322,2.0,9.0,80,0.00,,,0.00,VWS V14.01,2013-01-13 10:28:00,
2013-01-13 04:30:00,4.4,-0.4,30.10,NW,323,4.0,9.0,80,0.00,,,0.00,VWS V14.01,2013-01-13 10:30:00,
2013-01-13 04:33:00,4.4,-0.4,30.10,NW,323,2.0,7.0,80,0.00,,,0.00,VWS V14.01,2013-01-13 10:33:00,
2013-01-13 04:38:00,4.3,-0.5,30.10,North,7,2.0,10.0,80,0.00,,,0.00,VWS V14.01,2013-01-13 10:38:00,
2013-01-13 04:43:00,4.2,-0.6,30.10,NW,326,1.0,10.0,80,0.00,,,0.00,VWS V14.01,2013-01-13 10:43:00,
2013-01-13 04:48:00,4.2,-0.6,30.10,NNE,27,4.0,11.0,80,0.00,,,0.00,VWS V14.01,2013-01-13 10:48:00,
2013-01-13 04:53:00,4.2,-0.6,30.11,NW,316,3.0,11.0,80,0.00,,,0.00,VWS V14.01,2013-01-13 10:53:00,
2013-01-13 04:58:00,4.2,-0.6,30.11,NW,326,2.0,11.0,80,0.00,,,0.00,VWS V14.01,2013-01-13 10:58:00,
2013-01-13 05:00:00,4.3,-0.2,30.11,NW,313,2.0,11.0,81,0.00,,,0.00,VWS V14.01,2013-01-13 11:00:00,
2013-01-13 05:03:00,4.4,-0.1,30.10,NW,314,4.0,5.0,81,0.00,,,0.00,VWS V14.01,2013-01-13 11:03:00,
2013-01-13 05:08:00,4.5,0.0,30.11,WNW,294,6.0,6.0,81,0.00,,,0.00,VWS V14.01,2013-01-13 11:08:00,
2013-01-13 05:13:00,4.6,-0.2,30.11,NNW,329,2.0,9.0,80,0.00,,,0.00,VWS V14.01,2013-01-13 11:13:00,
2013-01-13 05:18:00,4.6,-0.2,30.11,NW,318,1.0,9.0,80,0.00,,,0.00,VWS V14.01,2013-01-13 11:18:00,
2013-01-13 05:23:00,4.6,-0.2,30.12,NW,311,1.0,9.0,80,0.00,,,0.00,VWS V14.01,2013-01-13 11:23:00,
2013-01-13 05:28:00,4.7,-0.1,30.13,NW,322,1.0,9.0,80,0.00,,,0.00,VWS V14.01,2013-01-13 11:28:00,
2013-01-13 05:30:00,4.8,0.3,30.13,NW,316,7.0,12.0,81,0.00,,,0.00,VWS V14.01,2013-01-13 11:30:00,
2013-01-13 05:33:00,4.8,0.0,30.13,NNW,335,5.0,8.0,80,0.00,,,0.00,VWS V14.01,2013-01-13 11:33:00,
2013-01-13 05:38:00,4.7,-0.1,30.13,WNW,295,4.0,11.0,80,0.00,,,0.00,VWS V14.01,2013-01-13 11:38:00,
2013-01-13 05:43:00,4.7,-0.1,30.13,NW,313,3.0,11.0,80,0.00,,,0.00,VWS V14.01,2013-01-13 11:43:00,
2013-01-13 05:48:00,4.7,-0.1,30.14,NW,314,3.0,11.0,80,0.00,,,0.00,VWS V14.01,2013-01-13 11:48:00,
2013-01-13 05:53:00,4.7,-0.4,30.14,NW,316,4.0,11.0,79,0.00,,,0.00,VWS V14.01,2013-01-13 11:53:00,
2013-01-13 05:58:00,4.7,-0.1,30.14,NW,319,6.0,11.0,80,0.00,,,0.00,VWS V14.01,2013-01-13 11:58:00,
2013-01-13 06:00:00,4.7,-0.1,30.14,NW,314,4.0,11.0,80,0.00,,,0.00,VWS V14.01,2013-01-13 12:00:00,
2013-01-13 06:03:00,4.7,-0.1,30.14,NW,326,3.0,4.0,80,0.00,,,0.00,VWS V14.01,2013-01-13 12:03:00,
2013-01-13 06:08:00,4.7,-0.1,30.14,WNW,297,3.0,8.0,80,0.00,,,0.00,VWS V14.01,2013-01-13 12:08:00,
2013-01-13 06:13:00,4.6,-0.2,30.14,NNW,330,4.0,8.0,80,0.00,,,0.00,VWS V14.01,2013-01-13 12:13:00,
2013-01-13 06:18:00,4.6,0.1,30.14,NNE,15,1.0,8.0,81,0.00,,,0.00,VWS V14.01,2013-01-13 12:18:00,
2013-01-13 06:23:00,4.5,-0.3,30.15,WNW,301,6.0,8.0,80,0.00,,,0.00,VWS V14.01,2013-01-13 12:23:00,
2013-01-13 06:28:00,4.4,-0.4,30.15,NW,316,3.0,8.0,80,0.00,,,0.00,VWS V14.01,2013-01-13 12:28:00,
2013-01-13 06:30:00,4.4,-0.4,30.15,NNW,335,3.0,8.0,80,0.00,,,0.00,VWS V14.01,2013-01-13 12:30:00,
2013-01-13 06:33:00,4.4,-0.4,30.15,NNW,332,3.0,7.0,80,0.00,,,0.00,VWS V14.01,2013-01-13 12:33:00,
2013-01-13 06:38:00,4.4,-0.4,30.14,NE,39,3.0,8.0,80,0.00,,,0.00,VWS V14.01,2013-01-13 12:38:00,
2013-01-13 06:43:00,4.4,-0.1,30.15,NNE,15,3.0,8.0,81,0.00,,,0.00,VWS V14.01,2013-01-13 12:43:00,
2013-01-13 06:48:00,4.4,-0.1,30.15,NW,318,2.0,8.0,81,0.00,,,0.00,VWS V14.01,2013-01-13 12:48:00,
2013-01-13 06:53:00,4.5,0.0,30.15,NW,326,3.0,8.0,81,0.00,,,0.00,VWS V14.01,2013-01-13 12:53:00,
2013-01-13 06:58:00,4.4,-0.4,30.16,NW,312,1.0,8.0,80,0.00,,,0.00,VWS V14.01,2013-01-13 12:58:00,
2013-01-13 07:00:00,4.5,-0.3,30.16,NNE,16,4.0,8.0,80,0.00,,,0.00,VWS V14.01,2013-01-13 13:00:00,
2013-01-13 07:03:00,4.5,-0.3,30.16,NW,326,0.0,6.0,80,0.00,,,0.00,VWS V14.01,2013-01-13 13:03:00,
2013-01-13 07:08:00,4.5,-0.3,30.16,NNW,342,6.0,6.0,80,0.00,,,0.00,VWS V14.01,2013-01-13 13:08:00,
2013-01-13 07:13:00,4.5,-0.3,30.16,NW,326,1.0,7.0,80,0.00,,,0.00,VWS V14.01,2013-01-13 13:13:00,
2013-01-13 07:18:00,4.5,-0.3,30.16,WNW,297,1.0,7.0,80,0.00,,,0.00,VWS V14.01,2013-01-13 13:18:00,
2013-01-13 07:23:00,4.5,-0.3,30.17,North,8,1.0,7.0,80,0.00,,,0.00,VWS V14.01,2013-01-13 13:23:00,
2013-01-13 07:28:00,4.6,-0.2,30.17,NNW,336,1.0,7.0,80,0.00,,,0.00,VWS V14.01,2013-01-13 13:28:00,
2013-01-13 07:30:00,4.6,0.1,30.17,NNW,327,1.0,7.0,81,0.00,,,0.00,VWS V14.01,2013-01-13 13:30:00,
2013-01-13 07:33:00,4.6,0.1,30.17,North,356,1.0,4.0,81,0.00,,,0.00,VWS V14.01,2013-01-13 13:33:00,
2013-01-13 07:38:00,4.7,0.2,30.18,NNW,340,0.0,5.0,81,0.00,,,0.00,VWS V14.01,2013-01-13 13:38:00,
2013-01-13 07:43:00,4.6,0.1,30.18,NW,322,2.0,6.0,81,0.00,,,0.00,VWS V14.01,2013-01-13 13:43:00,
2013-01-13 07:48:00,4.6,0.1,30.19,NNW,332,3.0,7.0,81,0.00,,,0.00,VWS V14.01,2013-01-13 13:48:00,
2013-01-13 07:53:00,4.5,0.0,30.19,North,349,2.0,7.0,81,0.00,,,0.00,VWS V14.01,2013-01-13 13:53:00,
2013-01-13 07:58:00,4.3,-0.8,30.19,NW,314,4.0,7.0,79,0.00,,,0.00,VWS V14.01,2013-01-13 13:58:00,
2013-01-13 08:00:00,4.2,-0.9,30.19,NNW,328,4.0,7.0,79,0.00,,,0.00,VWS V14.01,2013-01-13 14:00:00,
2013-01-13 08:03:00,4.1,-0.9,30.20,NW,304,2.0,8.0,79,0.00,,,0.00,VWS V14.01,2013-01-13 14:03:00,
2013-01-13 08:08:00,3.8,-1.5,30.20,NNW,345,4.0,8.0,78,0.00,,,0.00,VWS V14.01,2013-01-13 14:08:00,
2013-01-13 08:13:00,3.5,-1.8,30.21,NNW,345,3.0,8.0,78,0.00,,,0.00,VWS V14.01,2013-01-13 14:13:00,
2013-01-13 08:18:00,3.4,-1.9,30.21,NW,316,2.0,8.0,78,0.00,,,0.00,VWS V14.01,2013-01-13 14:18:00,
2013-01-13 08:23:00,3.5,-1.5,30.21,North,4,4.0,8.0,79,0.00,,,0.00,VWS V14.01,2013-01-13 14:23:00,
2013-01-13 08:28:00,3.7,-1.6,30.21,NW,319,3.0,8.0,78,0.00,,,0.00,VWS V14.01,2013-01-13 14:28:00,
2013-01-13 08:30:00,3.7,-1.6,30.21,NW,316,4.0,8.0,78,0.00,,,0.00,VWS V14.01,2013-01-13 14:30:00,
2013-01-13 08:33:00,3.8,-1.5,30.21,WNW,290,4.0,7.0,78,0.00,,,0.00,VWS V14.01,2013-01-13 14:33:00,
2013-01-13 08:38:00,3.9,-1.1,30.20,NW,323,0.0,7.0,79,0.00,,,0.00,VWS V14.01,2013-01-13 14:38:00,
2013-01-13 08:43:00,4.2,-0.9,30.21,NW,323,4.0,7.0,79,0.00,,,0.00,VWS V14.01,2013-01-13 14:43:00,
2013-01-13 08:48:00,4.3,-1.0,30.20,NW,311,4.0,7.0,78,0.00,,,0.00,VWS V14.01,2013-01-13 14:48:00,
2013-01-13 08:53:00,4.3,-1.0,30.20,NW,317,3.0,7.0,78,0.00,,,0.00,VWS V14.01,2013-01-13 14:53:00,
2013-01-13 08:58:00,4.5,-0.8,30.20,NW,323,4.0,7.0,78,0.00,,,0.00,VWS V14.01,2013-01-13 14:58:00,
2013-01-13 09:00:00,4.5,-0.8,30.20,NNW,340,2.0,7.0,78,0.00,,,0.00,VWS V14.01,2013-01-13 15:00:00,
2013-01-13 09:03:00,4.5,-0.8,30.20,NW,316,1.0,4.0,78,0.00,,,0.00,VWS V14.01,2013-01-13 15:03:00,
2013-01-13 09:08:00,4.7,-0.9,30.20,NW,311,5.0,8.0,77,0.00,,,0.00,VWS V14.01,2013-01-13 15:08:00,
2013-01-13 09:13:00,4.8,-0.8,30.20,WNW,303,6.0,8.0,77,0.00,,,0.00,VWS V14.01,2013-01-13 15:13:00,
2013-01-13 09:18:00,5.0,-0.3,30.19,North,356,6.0,9.0,78,0.00,,,0.00,VWS V14.01,2013-01-13 15:18:00,
2013-01-13 09:23:00,5.0,-0.6,30.19,NW,314,5.0,9.0,77,0.00,,,0.00,VWS V14.01,2013-01-13 15:23:00,
2013-01-13 09:28:00,5.3,-0.3,30.19,NW,322,3.0,9.0,77,0.00,,,0.00,VWS V14.01,2013-01-13 15:28:00,
2013-01-13 09:30:00,5.4,-0.2,30.19,NW,315,2.0,9.0,77,0.00,,,0.00,VWS V14.01,2013-01-13 15:30:00,
2013-01-13 09:33:00,5.4,-0.5,30.19,NW,314,5.0,9.0,76,0.00,,,0.00,VWS V14.01,2013-01-13 15:33:00,
2013-01-13 09:38:00,5.3,-0.3,30.19,NW,316,4.0,10.0,77,0.00,,,0.00,VWS V14.01,2013-01-13 15:38:00,
2013-01-13 09:43:00,5.6,0.0,30.19,WNW,295,5.0,10.0,77,0.00,,,0.00,VWS V14.01,2013-01-13 15:43:00,
2013-01-13 09:48:00,5.7,-0.2,30.19,North,1,4.0,10.0,76,0.00,,,0.00,VWS V14.01,2013-01-13 15:48:00,
2013-01-13 09:53:00,5.6,-0.3,30.19,North,8,3.0,13.0,76,0.00,,,0.00,VWS V14.01,2013-01-13 15:53:00,
2013-01-13 09:58:00,5.9,0.3,30.19,NW,326,2.0,13.0,77,0.00,,,0.00,VWS V14.01,2013-01-13 15:58:00,
2013-01-13 10:00:00,5.9,0.0,30.19,NW,308,3.0,13.0,76,0.00,,,0.00,VWS V14.01,2013-01-13 16:00:00,
2013-01-13 10:03:00,5.9,0.0,30.19,NW,304,7.0,10.0,76,0.00,,,0.00,VWS V14.01,2013-01-13 16:03:00,
2013-01-13 10:08:00,5.7,0.1,30.20,NW,319,2.0,10.0,77,0.00,,,0.00,VWS V14.01,2013-01-13 16:08:00,
2013-01-13 10:13:00,5.9,0.3,30.19,NNW,333,3.0,10.0,77,0.00,,,0.00,VWS V14.01,2013-01-13 16:13:00,
2013-01-13 10:18:00,5.9,0.3,30.19,NW,311,8.0,10.0,77,0.00,,,0.00,VWS V14.01,2013-01-13 16:18:00,
2013-01-13 10:23:00,6.0,0.3,30.19,West,281,8.0,11.0,77,0.00,,,0.00,VWS V14.01,2013-01-13 16:23:00,
2013-01-13 10:28:00,6.0,0.1,30.19,NNW,345,7.0,11.0,76,0.00,,,0.00,VWS V14.01,2013-01-13 16:28:00,
2013-01-13 10:30:00,6.0,0.1,30.19,NW,307,5.0,12.0,76,0.00,,,0.00,VWS V14.01,2013-01-13 16:30:00,
2013-01-13 10:33:00,6.1,0.4,30.19,NW,307,6.0,7.0,77,0.00,,,0.00,VWS V14.01,2013-01-13 16:33:00,
2013-01-13 10:38:00,6.1,0.2,30.18,NW,308,2.0,7.0,76,0.00,,,0.00,VWS V14.01,2013-01-13 16:38:00,
2013-01-13 10:43:00,6.2,0.3,30.18,NW,311,6.0,10.0,76,0.00,,,0.00,VWS V14.01,2013-01-13 16:43:00,
2013-01-13 10:48:00,6.3,0.4,30.18,WNW,297,5.0,10.0,76,0.00,,,0.00,VWS V14.01,2013-01-13 16:48:00,
2013-01-13 10:53:00,6.6,0.9,30.18,NW,307,2.0,11.0,77,0.00,,,0.00,VWS V14.01,2013-01-13 16:53:00,
2013-01-13 10:58:00,6.8,1.1,30.18,WNW,282,1.0,11.0,77,0.00,,,0.00,VWS V14.01,2013-01-13 16:58:00,
2013-01-13 11:00:00,6.8,0.9,30.18,NW,305,4.0,11.0,76,0.00,,,0.00,VWS V14.01,2013-01-13 17:00:00,
2013-01-13 11:03:00,6.9,1.2,30.18,NW,307,4.0,8.0,77,0.00,,,0.00,VWS V14.01,2013-01-13 17:03:00,
2013-01-13 11:08:00,6.7,0.8,30.18,WNW,301,7.0,11.0,76,0.00,,,0.00,VWS V14.01,2013-01-13 17:08:00,
2013-01-13 11:13:00,6.7,1.3,30.18,North,356,6.0,11.0,78,0.00,,,0.00,VWS V14.01,2013-01-13 17:13:00,
2013-01-13 11:18:00,6.7,1.0,30.18,WNW,291,7.0,11.0,77,0.00,,,0.00,VWS V14.01,2013-01-13 17:18:00,
2013-01-13 11:23:00,6.7,1.0,30.18,WNW,294,9.0,11.0,77,0.00,,,0.00,VWS V14.01,2013-01-13 17:23:00,
2013-01-13 11:28:00,6.5,0.8,30.18,WNW,295,6.0,15.0,77,0.00,,,0.00,VWS V14.01,2013-01-13 17:28:00,
2013-01-13 11:30:00,6.7,1.0,30.18,NW,319,2.0,15.0,77,0.00,,,0.00,VWS V14.01,2013-01-13 17:30:00,
2013-01-13 11:33:00,6.9,1.2,30.18,WNW,302,5.0,5.0,77,0.00,,,0.00,VWS V14.01,2013-01-13 17:33:00,
2013-01-13 11:38:00,7.2,1.8,30.18,NNW,328,4.0,9.0,78,0.00,,,0.00,VWS V14.01,2013-01-13 17:38:00,
2013-01-13 11:43:00,7.0,1.0,30.18,NW,307,4.0,9.0,76,0.00,,,0.00,VWS V14.01,2013-01-13 17:43:00,
2013-01-13 11:48:00,7.2,1.8,30.18,WNW,301,7.0,10.0,78,0.00,,,0.00,VWS V14.01,2013-01-13 17:48:00,
2013-01-13 11:52:00,7.3,1.6,30.17,NNW,336,3.0,10.0,77,0.00,,,0.00,VWS V14.01,2013-01-13 17:52:00,
2013-01-13 11:57:00,7.4,1.7,30.17,NW,316,6.0,10.0,77,0.00,,,0.00,VWS V14.01,2013-01-13 17:57:00,
2013-01-13 12:00:00,7.3,1.3,30.17,WNW,301,7.0,10.0,76,0.00,,,0.00,VWS V14.01,2013-01-13 18:00:00,
2013-01-13 12:02:00,7.3,1.6,30.17,WNW,299,3.0,7.0,77,0.00,,,0.00,VWS V14.01,2013-01-13 18:02:00,
2013-01-13 12:07:00,7.4,1.7,30.18,NNW,328,3.0,12.0,77,0.00,,,0.00,VWS V14.01,2013-01-13 18:07:00,
2013-01-13 12:12:00,7.3,1.3,30.18,NW,309,4.0,12.0,76,0.00,,,0.00,VWS V14.01,2013-01-13 18:12:00,
2013-01-13 12:17:00,7.2,1.2,30.18,NW,326,3.0,12.0,76,0.00,,,0.00,VWS V14.01,2013-01-13 18:17:00,
2013-01-13 12:22:00,7.3,1.6,30.18,NW,311,2.0,12.0,77,0.00,,,0.00,VWS V14.01,2013-01-13 18:22:00,
2013-01-13 12:27:00,7.4,1.7,30.18,WNW,301,8.0,12.0,77,0.00,,,0.00,VWS V14.01,2013-01-13 18:27:00,
2013-01-13 12:30:00,7.6,1.9,30.18,NW,311,2.0,12.0,77,0.00,,,0.00,VWS V14.01,2013-01-13 18:30:00,
2013-01-13 12:33:00,7.7,2.0,30.18,WNW,288,7.0,8.0,77,0.00,,,0.00,VWS V14.01,2013-01-13 18:33:00,
2013-01-13 12:37:00,8.0,2.3,30.18,WNW,293,3.0,8.0,77,0.00,,,0.00,VWS V14.01,2013-01-13 18:37:00,
2013-01-13 12:42:00,8.1,2.1,30.18,NNW,332,4.0,9.0,76,0.00,,,0.00,VWS V14.01,2013-01-13 18:42:00,
2013-01-13 12:47:00,8.3,2.6,30.18,WNW,288,9.0,11.0,77,0.00,,,0.00,VWS V14.01,2013-01-13 18:47:00,
2013-01-13 12:52:00,8.3,2.6,30.18,WNW,282,4.0,11.0,77,0.00,,,0.00,VWS V14.01,2013-01-13 18:52:00,
2013-01-13 12:57:00,8.2,2.5,30.18,NW,304,4.0,11.0,77,0.00,,,0.00,VWS V14.01,2013-01-13 18:57:00,
2013-01-13 13:00:00,8.3,2.6,30.18,NW,308,6.0,12.0,77,0.00,,,0.00,VWS V14.01,2013-01-13 19:00:00,
2013-01-13 13:02:00,8.3,2.3,30.18,WNW,301,5.0,8.0,76,0.00,,,0.00,VWS V14.01,2013-01-13 19:02:00,
2013-01-13 13:07:00,8.5,2.8,30.17,NNW,344,1.0,8.0,77,0.00,,,0.00,VWS V14.01,2013-01-13 19:07:00,
2013-01-13 13:12:00,8.7,2.7,30.17,WNW,301,3.0,8.0,76,0.00,,,0.00,VWS V14.01,2013-01-13 19:12:00,
2013-01-13 13:17:00,8.5,2.8,30.17,WNW,303,7.0,10.0,77,0.00,,,0.00,VWS V14.01,2013-01-13 19:17:00,
2013-01-13 13:22:00,8.5,2.8,30.17,NNW,346,3.0,10.0,77,0.00,,,0.00,VWS V14.01,2013-01-13 19:22:00,
2013-01-13 13:27:00,9.0,3.5,30.17,West,281,5.0,10.0,78,0.00,,,0.00,VWS V14.01,2013-01-13 19:27:00,
2013-01-13 13:30:00,9.0,3.3,30.17,WNW,301,6.0,10.0,77,0.00,,,0.00,VWS V14.01,2013-01-13 19:30:00,
2013-01-13 13:32:00,9.0,3.3,30.17,NW,312,2.0,7.0,77,0.00,,,0.00,VWS V14.01,2013-01-13 19:32:00,
2013-01-13 13:37:00,9.1,3.1,30.17,NW,307,3.0,9.0,76,0.00,,,0.00,VWS V14.01,2013-01-13 19:37:00,
2013-01-13 13:42:00,9.3,3.3,30.17,North,354,5.0,9.0,76,0.00,,,0.00,VWS V14.01,2013-01-13 19:42:00,
2013-01-13 13:47:00,9.4,3.4,30.17,WNW,293,7.0,9.0,76,0.00,,,0.00,VWS V14.01,2013-01-13 19:47:00,
2013-01-13 13:52:00,9.5,3.8,30.17,WNW,301,5.0,14.0,77,0.00,,,0.00,VWS V14.01,2013-01-13 19:52:00,
2013-01-13 13:57:00,9.7,3.7,30.18,NW,311,2.0,14.0,76,0.00,,,0.00,VWS V14.01,2013-01-13 19:57:00,
2013-01-13 14:00:00,9.9,3.9,30.18,NW,319,7.0,14.0,76,0.00,,,0.00,VWS V14.01,2013-01-13 20:00:00,
2013-01-13 14:02:00,10.0,4.2,30.18,NW,319,5.0,8.0,77,0.00,,,0.00,VWS V14.01,2013-01-13 20:02:00,
2013-01-13 14:07:00,10.3,4.2,30.18,NW,307,4.0,9.0,76,0.00,,,0.00,VWS V14.01,2013-01-13 20:07:00,
2013-01-13 14:12:00,10.0,4.0,30.18,WNW,294,4.0,11.0,76,0.00,,,0.00,VWS V14.01,2013-01-13 20:12:00,
2013-01-13 14:17:00,10.0,4.0,30.18,WNW,290,6.0,11.0,76,0.00,,,0.00,VWS V14.01,2013-01-13 20:17:00,
2013-01-13 14:22:00,10.2,4.2,30.19,NNW,336,3.0,11.0,76,0.00,,,0.00,VWS V14.01,2013-01-13 20:22:00,
2013-01-13 14:27:00,10.2,4.2,30.19,NW,314,1.0,11.0,76,0.00,,,0.00,VWS V14.01,2013-01-13 20:27:00,
2013-01-13 14:30:00,10.3,4.2,30.19,NW,319,6.0,11.0,76,0.00,,,0.00,VWS V14.01,2013-01-13 20:30:00,
2013-01-13 14:32:00,10.2,4.2,30.19,NNW,333,5.0,9.0,76,0.00,,,0.00,VWS V14.01,2013-01-13 20:32:00,
2013-01-13 14:37:00,10.5,4.4,30.19,NW,315,5.0,9.0,76,0.00,,,0.00,VWS V14.01,2013-01-13 20:37:00,
2013-01-13 14:42:00,10.6,4.5,30.19,NW,319,4.0,10.0,76,0.00,,,0.00,VWS V14.01,2013-01-13 20:42:00,
2013-01-13 14:47:00,10.8,5.0,30.19,NW,311,3.0,10.0,77,0.00,,,0.00,VWS V14.01,2013-01-13 20:47:00,
2013-01-13 14:52:00,10.9,5.1,30.19,WNW,292,4.0,10.0,77,0.00,,,0.00,VWS V14.01,2013-01-13 20:52:00,
2013-01-13 14:57:00,11.0,4.9,30.19,NW,322,2.0,10.0,76,0.00,,,0.00,VWS V14.01,2013-01-13 20:57:00,
2013-01-13 15:00:00,11.1,5.0,30.20,WNW,290,4.0,10.0,76,0.00,,,0.00,VWS V14.01,2013-01-13 21:00:00,
2013-01-13 15:02:00,11.0,4.9,30.20,NW,311,3.0,6.0,76,0.00,,,0.00,VWS V14.01,2013-01-13 21:02:00,
2013-01-13 15:07:00,10.9,4.8,30.20,NW,307,2.0,8.0,76,0.00,,,0.00,VWS V14.01,2013-01-13 21:07:00,
2013-01-13 15:12:00,10.9,5.1,30.21,NW,304,2.0,8.0,77,0.00,,,0.00,VWS V14.01,2013-01-13 21:12:00,
2013-01-13 15:17:00,10.9,5.1,30.21,NW,317,2.0,8.0,77,0.00,,,0.00,VWS V14.01,2013-01-13 21:17:00,
2013-01-13 15:22:00,11.0,4.9,30.21,WNW,303,6.0,8.0,76,0.00,,,0.00,VWS V14.01,2013-01-13 21:22:00,
2013-01-13 15:27:00,11.0,5.2,30.22,WNW,297,5.0,9.0,77,0.00,,,0.00,VWS V14.01,2013-01-13 21:27:00,
2013-01-13 15:30:00,11.0,5.2,30.22,WNW,300,3.0,9.0,77,0.00,,,0.00,VWS V14.01,2013-01-13 21:30:00,
2013-01-13 15:32:00,11.1,5.6,30.22,NW,307,4.0,7.0,78,0.00,,,0.00,VWS V14.01,2013-01-13 21:32:00,
2013-01-13 15:37:00,11.2,5.4,30.22,WNW,290,4.0,11.0,77,0.00,,,0.00,VWS V14.01,2013-01-13 21:37:00,
2013-01-13 15:42:00,11.2,5.4,30.23,NNW,333,5.0,11.0,77,0.00,,,0.00,VWS V14.01,2013-01-13 21:42:00,
2013-01-13 15:47:00,11.2,5.4,30.23,NW,307,4.0,11.0,77,0.00,,,0.00,VWS V14.01,2013-01-13 21:47:00,
2013-01-13 15:52:00,11.2,5.4,30.23,NW,326,7.0,11.0,77,0.00,,,0.00,VWS V14.01,2013-01-13 21:52:00,
2013-01-13 15:57:00,11.2,5.4,30.23,WNW,301,8.0,11.0,77,0.00,,,0.00,VWS V14.01,2013-01-13 21:57:00,
2013-01-13 16:00:00,11.1,5.3,30.23,WNW,283,3.0,13.0,77,0.00,,,0.00,VWS V14.01,2013-01-13 22:00:00,
2013-01-13 16:02:00,11.2,5.4,30.23,WNW,288,2.0,7.0,77,0.00,,,0.00,VWS V14.01,2013-01-13 22:02:00,
2013-01-13 16:07:00,11.4,5.6,30.22,WNW,293,6.0,12.0,77,0.00,,,0.00,VWS V14.01,2013-01-13 22:07:00,
2013-01-13 16:12:00,11.5,5.7,30.22,WNW,297,4.0,12.0,77,0.00,,,0.00,VWS V14.01,2013-01-13 22:12:00,
2013-01-13 16:17:00,11.5,5.7,30.23,WNW,297,4.0,12.0,77,0.00,,,0.00,VWS V14.01,2013-01-13 22:17:00,
2013-01-13 16:22:00,11.6,6.1,30.22,NW,305,1.0,12.0,78,0.00,,,0.00,VWS V14.01,2013-01-13 22:22:00,
2013-01-13 16:27:00,11.8,6.3,30.23,NW,322,3.0,12.0,78,0.00,,,0.00,VWS V14.01,2013-01-13 22:27:00,
2013-01-13 16:30:00,11.8,6.3,30.23,NW,323,3.0,12.0,78,0.00,,,0.00,VWS V14.01,2013-01-13 22:30:00,
2013-01-13 16:32:00,11.8,6.0,30.23,NW,322,2.0,7.0,77,0.00,,,0.00,VWS V14.01,2013-01-13 22:32:00,
2013-01-13 16:37:00,11.7,5.9,30.23,NW,315,3.0,8.0,77,0.00,,,0.00,VWS V14.01,2013-01-13 22:37:00,
2013-01-13 16:42:00,11.7,6.2,30.23,WNW,295,3.0,8.0,78,0.00,,,0.00,VWS V14.01,2013-01-13 22:42:00,
2013-01-13 16:47:00,11.8,6.3,30.23,WNW,300,4.0,8.0,78,0.00,,,0.00,VWS V14.01,2013-01-13 22:47:00,
2013-01-13 16:52:00,11.7,6.2,30.24,WNW,300,3.0,8.0,78,0.00,,,0.00,VWS V14.01,2013-01-13 22:52:00,
2013-01-13 16:57:00,11.6,6.4,30.23,NW,315,1.0,9.0,79,0.00,,,0.00,VWS V14.01,2013-01-13 22:57:00,
2013-01-13 17:00:00,11.5,6.3,30.24,WNW,302,6.0,9.0,79,0.00,,,0.00,VWS V14.01,2013-01-13 23:00:00,
2013-01-13 17:02:00,11.5,6.3,30.24,NW,315,5.0,7.0,79,0.00,,,0.00,VWS V14.01,2013-01-13 23:02:00,
2013-01-13 17:07:00,11.5,6.3,30.24,NNW,329,1.0,7.0,79,0.00,,,0.00,VWS V14.01,2013-01-13 23:07:00,
2013-01-13 17:12:00,11.5,6.5,30.24,NW,326,1.0,7.0,80,0.00,,,0.00,VWS V14.01,2013-01-13 23:12:00,
2013-01-13 17:17:00,11.5,6.5,30.24,WNW,297,6.0,8.0,80,0.00,,,0.00,VWS V14.01,2013-01-13 23:17:00,
2013-01-13 17:29:00,11.4,6.4,30.24,NW,317,3.0,3.0,80,0.00,,,0.00,VWS V14.01,2013-01-13 23:29:00,
2013-01-13 17:30:00,11.4,6.4,30.24,WNW,303,4.0,5.0,80,0.00,,SKC,0.00,VWS V14.01,2013-01-13 23:30:00,
2013-01-13 17:34:00,11.4,6.4,30.24,WNW,298,4.0,7.0,80,0.00,,,0.00,VWS V14.01,2013-01-13 23:34:00,
2013-01-13 17:39:00,11.3,6.3,30.24,NW,311,6.0,7.0,80,0.00,,,0.00,VWS V14.01,2013-01-13 23:39:00,
2013-01-13 17:44:00,11.3,6.3,30.24,WNW,302,1.0,8.0,80,0.00,,,0.00,VWS V14.01,2013-01-13 23:44:00,
2013-01-13 17:49:00,11.3,6.6,30.25,NNW,327,2.0,9.0,81,0.00,,,0.00,VWS V14.01,2013-01-13 23:49:00,
2013-01-13 17:54:00,11.2,6.5,30.25,NW,326,3.0,9.0,81,0.00,,,0.00,VWS V14.01,2013-01-13 23:54:00,
2013-01-13 17:59:00,11.2,6.5,30.26,NW,326,5.0,12.0,81,0.00,,,0.00,VWS V14.01,2013-01-13 23:59:00,
2013-01-13 18:00:00,11.2,6.5,30.26,WNW,298,2.0,12.0,81,0.00,,SKC,0.00,VWS V14.01,2013-01-14 00:00:00,
2013-01-13 18:04:00,11.2,6.5,30.26,NNW,342,4.0,8.0,81,0.00,,,0.00,VWS V14.01,2013-01-14 00:04:00,
2013-01-13 18:09:00,11.1,6.4,30.26,West,276,3.0,8.0,81,0.00,,,0.00,VWS V14.01,2013-01-14 00:09:00,
2013-01-13 18:14:00,11.0,6.3,30.26,NW,322,4.0,8.0,81,0.00,,,0.00,VWS V14.01,2013-01-14 00:14:00,
2013-01-13 18:19:00,11.0,6.3,30.27,NW,311,3.0,8.0,81,0.00,,,0.00,VWS V14.01,2013-01-14 00:19:00,
2013-01-13 18:24:00,11.0,6.3,30.27,WNW,295,3.0,8.0,81,0.00,,,0.00,VWS V14.01,2013-01-14 00:24:00,
2013-01-13 18:29:00,10.9,6.2,30.27,NW,307,3.0,8.0,81,0.00,,,0.00,VWS V14.01,2013-01-14 00:29:00,
2013-01-13 18:30:00,10.9,6.2,30.27,NW,319,2.0,8.0,81,0.00,,SKC,0.00,VWS V14.01,2013-01-14 00:30:00,
2013-01-13 18:34:00,10.9,6.5,30.27,WNW,298,2.0,8.0,82,0.00,,,0.00,VWS V14.01,2013-01-14 00:34:00,
2013-01-13 18:39:00,10.8,6.4,30.27,WNW,303,2.0,8.0,82,0.00,,,0.00,VWS V14.01,2013-01-14 00:39:00,
2013-01-13 18:44:00,10.7,6.3,30.27,NW,326,3.0,8.0,82,0.00,,,0.00,VWS V14.01,2013-01-14 00:44:00,
2013-01-13 18:49:00,10.6,5.9,30.27,NW,311,2.0,8.0,81,0.00,,,0.00,VWS V14.01,2013-01-14 00:49:00,
2013-01-13 18:54:00,10.6,5.9,30.27,WNW,303,4.0,8.0,81,0.00,,,0.00,VWS V14.01,2013-01-14 00:54:00,
2013-01-13 18:59:00,10.6,5.7,30.27,WNW,300,4.0,8.0,80,0.00,,,0.00,VWS V14.01,2013-01-14 00:59:00,
2013-01-13 19:00:00,10.5,5.3,30.27,WNW,297,7.0,8.0,79,0.00,,SKC,0.00,VWS V14.01,2013-01-14 01:00:00,
2013-01-13 19:04:00,10.5,5.3,30.27,WNW,283,1.0,6.0,79,0.00,,,0.00,VWS V14.01,2013-01-14 01:04:00,
2013-01-13 19:09:00,10.4,4.9,30.28,NW,316,3.0,6.0,78,0.00,,,0.00,VWS V14.01,2013-01-14 01:09:00,
2013-01-13 19:14:00,10.4,4.9,30.28,NW,311,0.0,7.0,78,0.00,,,0.00,VWS V14.01,2013-01-14 01:14:00,
2013-01-13 19:19:00,10.3,5.1,30.28,NW,322,1.0,7.0,79,0.00,,,0.00,VWS V14.01,2013-01-14 01:19:00,
2013-01-13 19:24:00,10.2,4.7,30.28,WNW,284,1.0,7.0,78,0.00,,,0.00,VWS V14.01,2013-01-14 01:24:00,
2013-01-13 19:29:00,10.1,4.9,30.29,WNW,293,2.0,7.0,79,0.00,,,0.00,VWS V14.01,2013-01-14 01:29:00,
2013-01-13 19:30:00,10.1,4.9,30.29,NW,326,1.0,7.0,79,0.00,,SKC,0.00,VWS V14.01,2013-01-14 01:30:00,
2013-01-13 19:34:00,10.0,4.5,30.29,North,4,1.0,4.0,78,0.00,,,0.00,VWS V14.01,2013-01-14 01:34:00,
2013-01-13 19:39:00,9.9,4.7,30.29,NW,311,1.0,4.0,79,0.00,,,0.00,VWS V14.01,2013-01-14 01:39:00,
2013-01-13 19:44:00,9.9,4.7,30.29,NW,312,1.0,4.0,79,0.00,,,0.00,VWS V14.01,2013-01-14 01:44:00,
2013-01-13 19:49:00,9.8,4.3,30.29,WNW,297,1.0,4.0,78,0.00,,,0.00,VWS V14.01,2013-01-14 01:49:00,
2013-01-13 19:54:00,9.8,4.3,30.29,WNW,297,2.0,5.0,78,0.00,,,0.00,VWS V14.01,2013-01-14 01:54:00,
2013-01-13 19:59:00,9.8,4.3,30.29,NW,326,2.0,6.0,78,0.00,,,0.00,VWS V14.01,2013-01-14 01:59:00,
2013-01-13 20:00:00,9.7,4.2,30.29,NW,308,1.0,6.0,78,0.00,,SKC,0.00,VWS V14.01,2013-01-14 02:00:00,
2013-01-13 20:04:00,9.6,4.1,30.30,NW,326,1.0,2.0,78,0.00,,,0.00,VWS V14.01,2013-01-14 02:04:00,
2013-01-13 20:09:00,9.5,4.3,30.29,WNW,294,1.0,3.0,79,0.00,,,0.00,VWS V14.01,2013-01-14 02:09:00,
2013-01-13 20:14:00,9.4,4.2,30.29,NW,319,2.0,4.0,79,0.00,,,0.00,VWS V14.01,2013-01-14 02:14:00,
2013-01-13 20:19:00,9.4,4.2,30.29,WNW,298,3.0,4.0,79,0.00,,,0.00,VWS V14.01,2013-01-14 02:19:00,
2013-01-13 20:24:00,9.2,4.0,30.30,NW,304,2.0,4.0,79,0.00,,,0.00,VWS V14.01,2013-01-14 02:24:00,
2013-01-13 20:29:00,9.2,4.0,30.30,WNW,297,1.0,4.0,79,0.00,,,0.00,VWS V14.01,2013-01-14 02:29:00,
2013-01-13 20:30:00,9.2,4.0,30.30,NW,307,2.0,4.0,79,0.00,,SKC,0.00,VWS V14.01,2013-01-14 02:30:00,
2013-01-13 20:34:00,9.2,4.0,30.30,NW,315,1.0,4.0,79,0.00,,,0.00,VWS V14.01,2013-01-14 02:34:00,
2013-01-13 20:39:00,9.1,3.9,30.30,NW,314,0.0,4.0,79,0.00,,,0.00,VWS V14.01,2013-01-14 02:39:00,
2013-01-13 20:44:00,9.0,3.8,30.30,NNW,329,1.0,4.0,79,0.00,,,0.00,VWS V14.01,2013-01-14 02:44:00,
2013-01-13 20:49:00,8.9,4.0,30.31,West,260,0.0,4.0,80,0.00,,,0.00,VWS V14.01,2013-01-14 02:49:00,
2013-01-13 20:54:00,8.8,3.9,30.31,West,276,1.0,4.0,80,0.00,,,0.00,VWS V14.01,2013-01-14 02:54:00,
2013-01-13 20:59:00,8.7,3.8,30.31,WNW,301,0.0,4.0,80,0.00,,,0.00,VWS V14.01,2013-01-14 02:59:00,
2013-01-13 21:00:00,8.7,3.8,30.31,NW,319,1.0,4.0,80,0.00,,SKC,0.00,VWS V14.01,2013-01-14 03:00:00,
2013-01-13 21:04:00,8.7,4.1,30.31,WNW,295,1.0,3.0,81,0.00,,,0.00,VWS V14.01,2013-01-14 03:04:00,
2013-01-13 21:09:00,8.7,4.3,30.31,WNW,301,1.0,5.0,82,0.00,,,0.00,VWS V14.01,2013-01-14 03:09:00,
2013-01-13 21:14:00,8.7,4.3,30.31,NW,308,0.0,5.0,82,0.00,,,0.00,VWS V14.01,2013-01-14 03:14:00,
2013-01-13 21:19:00,8.7,4.3,30.31,WNW,300,1.0,5.0,82,0.00,,,0.00,VWS V14.01,2013-01-14 03:19:00,
2013-01-13 21:24:00,8.7,4.6,30.32,WNW,284,1.0,5.0,83,0.00,,,0.00,VWS V14.01,2013-01-14 03:24:00,
2013-01-13 21:29:00,8.7,4.6,30.32,NW,307,2.0,5.0,83,0.00,,,0.00,VWS V14.01,2013-01-14 03:29:00,
2013-01-13 21:30:00,8.7,4.6,30.32,NW,319,0.0,5.0,83,0.00,,SKC,0.00,VWS V14.01,2013-01-14 03:30:00,
2013-01-13 21:34:00,8.7,4.6,30.31,West,264,1.0,2.0,83,0.00,,,0.00,VWS V14.01,2013-01-14 03:34:00,
2013-01-13 21:39:00,8.8,4.7,30.32,WNW,297,3.0,5.0,83,0.00,,,0.00,VWS V14.01,2013-01-14 03:39:00,
2013-01-13 21:44:00,8.8,4.4,30.32,WNW,287,0.0,5.0,82,0.00,,,0.00,VWS V14.01,2013-01-14 03:44:00,
2013-01-13 21:49:00,8.8,4.4,30.32,WNW,301,1.0,6.0,82,0.00,,,0.00,VWS V14.01,2013-01-14 03:49:00,
2013-01-13 21:54:00,8.7,4.3,30.32,WNW,294,2.0,6.0,82,0.00,,,0.00,VWS V14.01,2013-01-14 03:54:00,
2013-01-13 21:59:00,8.8,4.4,30.33,West,270,2.0,6.0,82,0.00,,,0.00,VWS V14.01,2013-01-14 03:59:00,
2013-01-13 22:00:00,8.8,4.4,30.33,West,278,2.0,6.0,82,0.00,,SKC,0.00,VWS V14.01,2013-01-14 04:00:00,
2013-01-13 22:04:00,8.7,4.3,30.33,West,278,0.0,3.0,82,0.00,,,0.00,VWS V14.01,2013-01-14 04:04:00,
2013-01-13 22:09:00,8.7,4.3,30.32,WNW,291,1.0,6.0,82,0.00,,,0.00,VWS V14.01,2013-01-14 04:09:00,
2013-01-13 22:14:00,8.7,4.3,30.33,WNW,300,1.0,6.0,82,0.00,,,0.00,VWS V14.01,2013-01-14 04:14:00,
2013-01-13 22:19:00,8.7,4.3,30.33,WNW,295,4.0,6.0,82,0.00,,,0.00,VWS V14.01,2013-01-14 04:19:00,
2013-01-13 22:24:00,8.6,4.2,30.33,WNW,289,2.0,6.0,82,0.00,,,0.00,VWS V14.01,2013-01-14 04:24:00,
2013-01-13 22:29:00,8.5,3.9,30.33,West,271,4.0,6.0,81,0.00,,,0.00,VWS V14.01,2013-01-14 04:29:00,
2013-01-13 22:30:00,8.5,3.9,30.33,WNW,291,2.0,6.0,81,0.00,,SKC,0.00,VWS V14.01,2013-01-14 04:30:00,
2013-01-13 22:34:00,8.5,4.2,30.33,WNW,290,3.0,6.0,82,0.00,,,0.00,VWS V14.01,2013-01-14 04:34:00,
2013-01-13 22:39:00,8.5,3.9,30.33,WNW,295,3.0,6.0,81,0.00,,,0.00,VWS V14.01,2013-01-14 04:39:00,
2013-01-13 22:44:00,8.5,3.9,30.33,WNW,302,2.0,6.0,81,0.00,,,0.00,VWS V14.01,2013-01-14 04:44:00,
2013-01-13 22:49:00,8.4,4.1,30.33,WSW,246,3.0,7.0,82,0.00,,,0.00,VWS V14.01,2013-01-14 04:49:00,
2013-01-13 22:54:00,8.4,4.1,30.33,WNW,297,1.0,7.0,82,0.00,,,0.00,VWS V14.01,2013-01-14 04:54:00,
2013-01-13 22:59:00,8.3,4.0,30.33,NW,310,1.0,7.0,82,0.00,,,0.00,VWS V14.01,2013-01-14 04:59:00,
2013-01-13 23:00:00,8.3,4.0,30.33,NNW,329,1.0,7.0,82,0.00,,,0.00,VWS V14.01,2013-01-14 05:00:00,
2013-01-13 23:01:00,8.3,4.0,30.33,NW,311,2.0,7.0,82,0.00,,,0.00,VWS V14.01,2013-01-14 05:01:00,
2013-01-13 23:02:00,8.4,4.1,30.33,WNW,291,2.0,5.0,82,0.00,,,0.00,VWS V14.01,2013-01-14 05:02:00,
2013-01-13 23:07:00,8.4,4.1,30.33,WNW,293,4.0,8.0,82,0.00,,,0.00,VWS V14.01,2013-01-14 05:07:00,
2013-01-13 23:12:00,8.4,4.1,30.33,NW,304,2.0,8.0,82,0.00,,,0.00,VWS V14.01,2013-01-14 05:12:00,
2013-01-13 23:17:00,8.4,4.1,30.33,NW,311,2.0,8.0,82,0.00,,,0.00,VWS V14.01,2013-01-14 05:17:00,
2013-01-13 23:22:00,8.3,4.0,30.34,WNW,283,2.0,8.0,82,0.00,,,0.00,VWS V14.01,2013-01-14 05:22:00,
2013-01-13 23:27:00,8.3,4.0,30.34,WNW,301,6.0,8.0,82,0.00,,,0.00,VWS V14.01,2013-01-14 05:27:00,
2013-01-13 23:30:00,8.3,4.0,30.34,WNW,283,2.0,8.0,82,0.00,,SKC,0.00,VWS V14.01,2013-01-14 05:30:00,
2013-01-13 23:32:00,8.3,4.0,30.34,WSW,257,2.0,2.0,82,0.00,,,0.00,VWS V14.01,2013-01-14 05:32:00,
2013-01-13 23:37:00,8.3,4.0,30.34,West,278,3.0,5.0,82,0.00,,,0.00,VWS V14.01,2013-01-14 05:37:00,
2013-01-13 23:42:00,8.2,3.8,30.34,WNW,293,1.0,5.0,82,0.00,,,0.00,VWS V14.01,2013-01-14 05:42:00,
2013-01-13 23:47:00,8.1,3.8,30.34,West,276,4.0,5.0,82,0.00,,,0.00,VWS V14.01,2013-01-14 05:47:00,
2013-01-13 23:52:00,8.1,3.8,30.34,NW,307,1.0,5.0,82,0.00,,,0.00,VWS V14.01,2013-01-14 05:52:00,
2013-01-13 23:57:00,8.1,3.8,30.35,NW,311,1.0,5.0,82,0.00,,,0.00,VWS V14.01,2013-01-14 05:57:00,